Time;durP1;ratioP1;P1;durP2;ratioP2;P2;SDS_P1;SDS_P2;PMS_P1;PMS_P2;Temp;Humidity;BMP_temperature;BMP_pressure;BME280_temperature;BME280_humidity;BME280_pressure;Samples;Min_cycle;Max_cycle;Signal;HPM_P1;HPM_P2
2022/03/02 00:05:24;;;;;;;5.10;2.88;;;8.20;64.10;;;;;;20715173;28;20049;-76
2022/03/02 00:15:25;;;;;;;3.80;2.22;;;8.20;64.00;;;;;;20731114;28;20038;-76
2022/03/02 00:25:25;;;;;;;6.25;2.90;;;8.20;64.10;;;;;;20697925;28;20064;-76
2022/03/02 00:35:26;;;;;;;6.15;2.90;;;8.20;64.10;;;;;;20713446;28;20647;-76
2022/03/02 00:45:27;;;;;;;5.20;2.42;;;8.20;64.10;;;;;;20696630;28;20046;-76
2022/03/02 00:55:27;;;;;;;3.47;2.13;;;8.20;64.10;;;;;;20712391;28;20405;-75
2022/03/02 01:05:28;;;;;;;4.75;2.60;;;8.20;64.10;;;;;;20728251;28;20484;-76
2022/03/02 01:15:29;;;;;;;4.97;2.88;;;8.20;64.20;;;;;;20705680;28;20112;-76
2022/03/02 01:25:29;;;;;;;5.20;3.33;;;8.20;64.20;;;;;;20799351;28;20042;-77
2022/03/02 01:35:30;;;;;;;4.15;2.80;;;8.20;64.20;;;;;;20808833;28;20045;-75
2022/03/02 01:45:30;;;;;;;5.82;2.75;;;8.20;64.20;;;;;;20807863;28;20037;-76
2022/03/02 01:55:31;;;;;;;7.45;2.90;;;8.20;64.20;;;;;;20806486;28;20038;-76
2022/03/02 02:05:31;;;;;;;5.80;3.25;;;8.20;64.20;;;;;;20805822;28;20068;-76
2022/03/02 02:15:32;;;;;;;4.22;2.90;;;8.20;64.20;;;;;;20821327;28;20064;-76
2022/03/02 02:25:33;;;;;;;5.30;3.03;;;8.20;64.20;;;;;;20819566;28;20046;-75
2022/03/02 02:35:33;;;;;;;5.28;2.90;;;8.20;64.20;;;;;;20782363;28;20492;-76
2022/03/02 02:45:34;;;;;;;7.00;3.15;;;8.10;64.10;;;;;;20831871;28;20038;-75
2022/03/02 02:55:35;;;;;;;4.20;2.63;;;8.10;64.10;;;;;;20798566;28;20130;-76
2022/03/02 03:05:35;;;;;;;5.57;2.90;;;8.10;64.10;;;;;;20797681;28;20048;-76
2022/03/02 03:15:37;;;;;;;4.75;2.92;;;8.10;64.10;;;;;;20813220;28;20080;-76
2022/03/02 03:25:37;;;;;;;7.80;2.90;;;8.10;64.00;;;;;;20762254;28;1003167;-76
2022/03/02 03:35:38;;;;;;;4.68;2.97;;;8.20;63.90;;;;;;20796011;28;20124;-76
2022/03/02 03:45:39;;;;;;;5.05;2.55;;;8.20;63.90;;;;;;20797805;28;20040;-76
2022/03/02 03:55:39;;;;;;;5.32;3.28;;;8.20;64.00;;;;;;20796534;28;20029;-75
2022/03/02 04:05:40;;;;;;;6.05;3.03;;;8.20;64.00;;;;;;20796439;28;20067;-76
2022/03/02 04:15:40;;;;;;;4.55;2.90;;;8.10;64.00;;;;;;20811990;28;20036;-76
2022/03/02 04:25:41;;;;;;;5.95;3.10;;;8.20;64.00;;;;;;20811254;28;20045;-76
2022/03/02 04:35:41;;;;;;;6.45;3.70;;;8.10;64.60;;;;;;20777891;28;20160;-76
2022/03/02 04:45:42;;;;;;;5.90;3.35;;;8.10;64.00;;;;;;20793587;28;20053;-76
2022/03/02 04:55:44;;;;;;;6.40;3.05;;;8.10;64.00;;;;;;20793595;28;20668;-77
2022/03/02 05:05:45;;;;;;;6.38;3.40;;;8.10;64.00;;;;;;20809416;28;20037;-76
2022/03/02 05:15:45;;;;;;;4.75;2.95;;;8.10;64.10;;;;;;20808562;28;20051;-77
2022/03/02 05:25:46;;;;;;;6.93;2.83;;;8.20;63.70;;;;;;20775830;28;20046;-76
2022/03/02 05:35:46;;;;;;;6.60;3.47;;;8.50;63.20;;;;;;20791571;28;20288;-76
2022/03/02 05:45:47;;;;;;;5.68;3.08;;;8.90;62.30;;;;;;20783396;28;20376;-77
2022/03/02 05:55:48;;;;;;;5.95;3.03;;;9.20;61.30;;;;;;20725404;28;20029;-72
2022/03/02 06:05:49;;;;;;;6.45;3.58;;;9.40;60.50;;;;;;20722352;28;20121;-73
2022/03/02 06:15:50;;;;;;;6.20;2.92;;;9.60;59.90;;;;;;20730273;28;20034;-79
2022/03/02 06:25:50;;;;;;;4.45;3.00;;;9.60;59.60;;;;;;20722216;28;20050;-75
2022/03/02 06:35:53;;;;;;;4.82;2.65;;;9.50;59.60;;;;;;20738371;28;20061;-76
2022/03/02 06:45:55;;;;;;;6.97;3.70;;;9.30;59.80;;;;;;20724392;28;20069;-78
2022/03/02 06:55:56;;;;;;;5.53;3.05;;;9.10;60.40;;;;;;20737140;28;20402;-74
2022/03/02 07:05:56;;;;;;;5.80;3.10;;;8.90;60.90;;;;;;20735630;28;20125;-78
2022/03/02 07:15:58;;;;;;;5.20;2.97;;;8.70;61.30;;;;;;20719204;28;20030;-78
2022/03/02 07:25:59;;;;;;;6.50;3.72;;;8.60;61.70;;;;;;20717548;28;20973;-78
2022/03/02 07:35:59;;;;;;;5.75;3.40;;;8.50;62.10;;;;;;20742626;28;20037;-79
2022/03/02 07:46:00;;;;;;;6.43;3.20;;;8.40;62.20;;;;;;20733829;28;20504;-77
2022/03/02 07:56:01;;;;;;;5.75;2.75;;;8.30;62.40;;;;;;20700352;28;20065;-78
2022/03/02 08:06:01;;;;;;;4.50;2.55;;;8.30;62.70;;;;;;20636717;28;20117;-78
2022/03/02 08:16:02;;;;;;;6.25;2.97;;;8.30;62.90;;;;;;20633723;28;20177;-77
2022/03/02 08:26:03;;;;;;;5.35;3.33;;;8.30;63.10;;;;;;20649036;28;20043;-78
2022/03/02 08:36:04;;;;;;;5.85;3.05;;;8.20;63.20;;;;;;20676360;28;20108;-80
2022/03/02 08:46:04;;;;;;;6.20;2.90;;;8.20;63.30;;;;;;20713202;28;20037;-79
2022/03/02 08:56:06;;;;;;;6.13;3.10;;;8.20;63.50;;;;;;20681660;28;20034;-80
2022/03/02 09:06:06;;;;;;;4.43;2.50;;;8.20;63.50;;;;;;20671910;28;20485;-81
2022/03/02 09:16:07;;;;;;;4.15;2.30;;;8.30;63.60;;;;;;20702088;28;20061;-79
2022/03/02 09:26:13;;;;;;;4.88;2.72;;;8.20;63.70;;;;;;20679811;28;20390;-79
2022/03/02 09:36:13;;;;;;;4.85;2.85;;;8.20;63.70;;;;;;20710516;28;20135;-79
2022/03/02 09:46:17;;;;;;;3.85;2.30;;;8.20;63.80;;;;;;20730646;28;20560;-78
2022/03/02 09:56:19;;;;;;;6.03;2.72;;;8.30;63.90;;;;;;20711480;28;20077;-79
2022/03/02 10:06:20;;;;;;;4.15;2.42;;;8.20;63.90;;;;;;20724991;28;20100;-78
2022/03/02 10:16:25;;;;;;;6.10;2.65;;;8.30;64.00;;;;;;20707450;28;20026;-79
2022/03/02 10:26:31;;;;;;;4.28;2.15;;;8.30;64.10;;;;;;20691048;28;20482;-78
2022/03/02 10:36:31;;;;;;;3.38;2.22;;;8.30;64.10;;;;;;20739371;28;20037;-77
2022/03/02 10:46:32;;;;;;;4.90;2.47;;;8.20;64.10;;;;;;20713128;28;20547;-78
2022/03/02 10:56:40;;;;;;;4.60;2.30;;;8.30;64.30;;;;;;20705613;28;20048;-79
2022/03/02 11:06:40;;;;;;;10.50;4.15;;;8.30;64.30;;;;;;20720881;28;20096;-81
2022/03/02 11:16:43;;;;;;;9.82;4.28;;;8.20;63.60;;;;;;20720191;28;20030;-77
2022/03/02 11:26:46;;;;;;;7.93;4.32;;;8.20;61.90;;;;;;21108007;22;20095;-80
2022/03/02 11:36:50;;;;;;;8.40;4.40;;;8.20;61.20;;;;;;20833944;28;20523;-80
2022/03/02 11:46:51;;;;;;;9.40;3.38;;;8.20;61.20;;;;;;20812738;28;20064;-79
2022/03/02 11:56:54;;;;;;;7.35;2.55;;;8.30;61.50;;;;;;20814059;28;20041;-79
2022/03/02 12:06:55;;;;;;;6.30;3.65;;;8.30;62.00;;;;;;20830853;28;20040;-77
2022/03/02 12:16:55;;;;;;;5.00;2.78;;;8.30;62.30;;;;;;20779215;28;20496;-78
2022/03/02 12:27:04;;;;;;;7.28;2.83;;;8.30;62.70;;;;;;20829755;28;20077;-77
2022/03/02 12:37:05;;;;;;;5.07;2.55;;;8.30;63.00;;;;;;20815448;28;20083;-74
2022/03/02 12:47:10;;;;;;;3.53;1.98;;;8.30;63.20;;;;;;20812389;28;20033;-76
2022/03/02 12:57:12;;;;;;;3.25;1.90;;;8.30;63.40;;;;;;20813337;28;20147;-75
2022/03/02 13:07:29;;;;;;;4.03;2.42;;;8.30;63.50;;;;;;20812311;28;20041;-76
2022/03/02 13:17:29;;;;;;;3.90;1.83;;;8.30;63.60;;;;;;20781687;28;20063;-76
2022/03/02 13:27:30;;;;;;;4.20;1.58;;;8.30;63.70;;;;;;20835011;28;20045;-76
2022/03/02 13:38:00;;;;;;;2.55;1.73;;;8.30;63.80;;;;;;20793798;28;20037;-76
2022/03/02 13:48:17;;;;;;;3.00;1.75;;;8.30;63.90;;;;;;20849177;28;20045;-75
2022/03/02 13:58:23;;;;;;;3.03;1.65;;;8.40;64.00;;;;;;20839735;28;20076;-76
2022/03/02 14:08:24;;;;;;;2.80;1.67;;;8.30;63.90;;;;;;20822234;28;20111;-76
2022/03/02 14:18:24;;;;;;;3.85;1.98;;;8.40;64.10;;;;;;20838486;28;20084;-74
2022/03/02 14:28:25;;;;;;;3.67;1.65;;;8.40;64.00;;;;;;20837779;28;20076;-75
2022/03/02 14:38:29;;;;;;;3.45;2.30;;;8.40;63.90;;;;;;20827956;28;20536;-74
2022/03/02 14:48:33;;;;;;;3.72;1.63;;;8.50;63.80;;;;;;20816873;28;20076;-74
2022/03/02 14:58:41;;;;;;;2.20;1.30;;;8.50;63.70;;;;;;20831545;28;20037;-75
2022/03/02 15:08:46;;;;;;;3.05;1.88;;;8.60;63.60;;;;;;20800845;28;20121;-75
2022/03/02 15:18:57;;;;;;;2.70;1.40;;;8.70;63.60;;;;;;20800824;28;20067;-75
2022/03/02 15:29:04;;;;;;;8.95;2.67;;;8.70;63.50;;;;;;20817079;28;20107;-76
2022/03/02 15:39:04;;;;;;;3.37;1.50;;;8.80;63.60;;;;;;20799742;28;20041;-75
2022/03/02 15:49:05;;;;;;;3.15;1.35;;;8.80;63.40;;;;;;20810008;28;20129;-74
2022/03/02 15:59:07;;;;;;;5.10;1.80;;;9.10;62.80;;;;;;20816131;28;20025;-72
2022/03/02 16:09:14;;;;;;;2.60;1.33;;;9.30;62.50;;;;;;20792841;28;20292;-69
2022/03/02 16:19:15;;;;;;;4.40;1.73;;;9.40;62.90;;;;;;20787713;28;20469;-71
2022/03/02 16:29:16;;;;;;;3.00;1.40;;;9.40;62.00;;;;;;20794336;28;20045;-70
2022/03/02 16:39:21;;;;;;;1.95;1.40;;;9.40;61.80;;;;;;20811058;28;20092;-71
2022/03/02 16:49:22;;;;;;;1.45;1.05;;;9.40;61.80;;;;;;20790540;28;20396;-69
2022/03/02 16:59:22;;;;;;;2.35;1.27;;;9.20;62.00;;;;;;20796712;28;20040;-69
2022/03/02 17:09:24;;;;;;;2.88;1.40;;;9.10;62.40;;;;;;20814296;28;20033;-80
2022/03/02 17:19:25;;;;;;;5.38;1.63;;;9.00;62.70;;;;;;20812588;28;20520;-78
2022/03/02 17:29:25;;;;;;;2.38;1.65;;;8.80;62.90;;;;;;20818039;28;20078;-76
2022/03/02 17:39:26;;;;;;;3.28;1.77;;;8.80;63.10;;;;;;20769425;28;20029;-78
2022/03/02 17:49:28;;;;;;;3.85;1.67;;;8.70;63.30;;;;;;20818965;28;20029;-78
2022/03/02 17:59:29;;;;;;;2.08;1.55;;;8.60;63.50;;;;;;20775870;28;20041;-78
2022/03/02 18:09:29;;;;;;;3.60;1.52;;;8.50;63.50;;;;;;20808796;28;20073;-78
2022/03/02 18:19:30;;;;;;;3.72;1.98;;;8.50;63.70;;;;;;20819061;28;20060;-78
2022/03/02 18:29:35;;;;;;;2.28;1.52;;;8.50;63.80;;;;;;20777689;28;20033;-75
2022/03/02 18:39:35;;;;;;;3.28;1.75;;;8.50;63.90;;;;;;20822106;28;20033;-78
2022/03/02 18:49:36;;;;;;;2.90;1.30;;;8.50;63.90;;;;;;20793669;28;20539;-78
2022/03/02 18:59:37;;;;;;;4.22;2.20;;;8.40;63.90;;;;;;20818932;28;20291;-78
2022/03/02 19:09:41;;;;;;;7.00;2.40;;;8.40;63.90;;;;;;20819219;28;20056;-78
2022/03/02 19:19:41;;;;;;;4.40;2.20;;;8.40;64.00;;;;;;20800683;28;20397;-78
2022/03/02 19:29:46;;;;;;;3.95;2.50;;;8.30;64.00;;;;;;20801410;28;20091;-78
2022/03/02 19:39:56;;;;;;;3.95;2.13;;;8.30;64.10;;;;;;20800212;28;20099;-78
2022/03/02 19:49:58;;;;;;;5.20;2.20;;;8.30;64.10;;;;;;20815197;28;20033;-78
2022/03/02 19:59:58;;;;;;;7.18;2.63;;;8.30;64.10;;;;;;20798633;28;20044;-77
2022/03/02 20:10:00;;;;;;;5.43;2.28;;;8.30;64.00;;;;;;20798815;28;20401;-78
2022/03/02 20:20:01;;;;;;;5.70;2.70;;;8.30;64.00;;;;;;20796903;28;20029;-78
2022/03/02 20:30:05;;;;;;;3.95;2.08;;;8.30;63.90;;;;;;20811510;28;20050;-78
2022/03/02 20:40:06;;;;;;;3.45;2.22;;;8.30;63.90;;;;;;20794115;28;20038;-77
2022/03/02 20:50:07;;;;;;;5.03;2.85;;;8.30;63.80;;;;;;20794901;28;20042;-78
2022/03/02 21:00:08;;;;;;;3.85;2.35;;;8.30;63.80;;;;;;20814956;28;20608;-78
2022/03/02 21:10:09;;;;;;;6.20;2.92;;;8.30;63.80;;;;;;20825897;28;20033;-78
2022/03/02 21:20:10;;;;;;;4.32;3.00;;;8.30;63.70;;;;;;20809696;28;20034;-78
2022/03/02 21:30:10;;;;;;;5.13;2.47;;;8.30;63.70;;;;;;20826410;28;20440;-78
2022/03/02 21:40:12;;;;;;;3.72;2.45;;;8.30;63.60;;;;;;20809259;28;20033;-78
2022/03/02 21:50:13;;;;;;;4.60;2.70;;;8.30;63.60;;;;;;20839978;28;20049;-78
2022/03/02 22:00:14;;;;;;;8.80;4.18;;;8.30;63.60;;;;;;20824893;28;20060;-77
2022/03/02 22:10:15;;;;;;;5.63;3.50;;;8.30;63.50;;;;;;20806811;28;20452;-77
2022/03/02 22:20:15;;;;;;;7.00;3.65;;;8.20;63.40;;;;;;20806100;28;20072;-78
2022/03/02 22:30:16;;;;;;;8.27;3.63;;;8.20;63.30;;;;;;20821275;28;20041;-78
2022/03/02 22:40:16;;;;;;;6.40;3.80;;;8.20;63.30;;;;;;20837668;28;20064;-78
2022/03/02 22:50:17;;;;;;;5.20;3.00;;;8.20;63.30;;;;;;20820676;28;20109;-78
2022/03/02 23:00:27;;;;;;;6.07;3.40;;;8.20;63.20;;;;;;20819091;28;20038;-78
2022/03/02 23:20:49;;;;;;;7.57;3.47;;;8.20;63.20;;;;;;20833587;28;20030;-77
2022/03/02 23:30:49;;;;;;;6.95;3.72;;;8.20;63.10;;;;;;20818344;28;20116;-78
2022/03/02 23:40:50;;;;;;;5.72;3.22;;;8.20;63.10;;;;;;20800275;28;20482;-77
2022/03/02 23:50:50;;;;;;;6.57;3.35;;;8.20;63.10;;;;;;20783093;28;20315;-78
